Terminal Aerodrome Forecast
Issued by NWS

Home | Current Version | Previous Version | Text Only | Print | Product List | Glossary Off
Versions: 1 2 3 4 5 6 7 8 9 10 11 12 13 14 15 16 17 18

000
FTUS43 KMPX 250906 AAA
TAFRNH
TAF AMD
KRNH 250906Z 2509/2606 16008KT P6SM VCSH OVC008
      TEMPO 2511/2515 4SM -SHRA SCT007 BKN012
     FM251530 22010KT P6SM SCT020 SCT100
     FM251700 24014G22KT P6SM OVC050
     FM260200 28012KT P6SM VCSH OVC025=

USA.gov is the U.S. government's official web portal to all federal, state and local government web resources and services.